createdAt,value
2024-04-10T00:01:08.758Z,93.67
2024-04-10T00:03:38.657Z,94.30
2024-04-10T00:06:06.668Z,93.43
2024-04-10T00:08:40.109Z,93.65
2024-04-10T00:11:07.873Z,95.02
2024-04-10T00:13:38.264Z,95.11
2024-04-10T00:16:07.136Z,94.04
2024-04-10T00:18:38.398Z,93.00
2024-04-10T00:21:05.769Z,92.16
2024-04-10T00:23:35.596Z,93.04
2024-04-10T00:26:05.605Z,93.47
2024-04-10T00:28:35.833Z,94.34
2024-04-10T00:31:06.540Z,96.36
2024-04-10T00:33:40.707Z,95.05
2024-04-10T00:36:09.453Z,95.74
2024-04-10T00:38:39.681Z,94.52
2024-04-10T00:41:09.697Z,95.29
2024-04-10T00:43:39.517Z,95.52
2024-04-10T00:46:11.687Z,95.64
2024-04-10T00:48:42.556Z,95.65
2024-04-10T00:51:12.132Z,96.73
2024-04-10T00:53:43.860Z,98.08
2024-04-10T00:56:13.867Z,97.50
2024-04-10T00:58:44.262Z,98.91
2024-04-10T01:01:14.345Z,96.97
2024-04-10T01:03:45.004Z,99.23
2024-04-10T01:06:12.474Z,98.56
2024-04-10T01:08:43.283Z,98.60
2024-04-10T01:11:12.270Z,98.58
2024-04-10T01:13:44.928Z,97.55
2024-04-10T01:16:12.053Z,97.31
2024-04-10T01:18:41.766Z,98.77
2024-04-10T01:21:08.994Z,98.82
2024-04-10T01:23:41.449Z,98.71
2024-04-10T01:26:08.685Z,98.34
2024-04-10T01:28:38.442Z,98.43
2024-04-10T01:31:05.844Z,100.00
2024-04-10T01:33:39.959Z,99.93
2024-04-10T01:36:08.596Z,100.00
2024-04-10T01:38:42.140Z,98.11
2024-04-10T01:41:09.616Z,100.00
2024-04-10T01:43:39.505Z,98.76
2024-04-10T01:46:06.734Z,98.66
2024-04-10T01:48:36.974Z,100.00
2024-04-10T01:51:05.105Z,98.69
2024-04-10T01:53:34.878Z,98.96
2024-04-10T01:56:05.763Z,98.91
2024-04-10T01:58:36.003Z,98.29
2024-04-10T02:01:03.001Z,97.43
2024-04-10T02:03:32.982Z,97.28
2024-04-10T02:06:00.452Z,97.57
2024-04-10T02:08:30.251Z,98.29
2024-04-10T02:11:01.555Z,98.24
2024-04-10T02:13:34.133Z,97.39
2024-04-10T02:16:01.355Z,96.98
2024-04-10T02:18:31.129Z,98.05
2024-04-10T02:21:02.640Z,98.45
2024-04-10T02:23:34.455Z,97.86
2024-04-10T02:26:09.973Z,98.97
2024-04-10T02:28:42.463Z,99.01
2024-04-10T02:31:10.062Z,98.49
2024-04-10T02:33:40.132Z,99.23
2024-04-10T02:36:09.348Z,99.42
2024-04-10T02:38:40.388Z,99.38
2024-04-10T02:41:08.629Z,97.41
2024-04-10T02:43:38.933Z,98.03
2024-04-10T02:46:08.751Z,97.27
2024-04-10T02:48:38.602Z,97.66
2024-04-10T02:51:07.920Z,97.84
2024-04-10T02:53:37.945Z,97.32
2024-04-10T02:56:05.783Z,98.00
2024-04-10T02:58:35.601Z,98.44
2024-04-10T03:01:02.809Z,97.87
2024-04-10T03:03:35.576Z,97.68
2024-04-10T03:06:04.559Z,98.18
2024-04-10T03:08:35.128Z,98.12
2024-04-10T03:11:06.600Z,97.89
2024-04-10T03:13:36.701Z,97.69
2024-04-10T03:16:04.286Z,97.19
2024-04-10T03:18:36.707Z,97.36
2024-04-10T03:21:04.300Z,98.51
2024-04-10T03:23:34.200Z,98.87
2024-04-10T03:26:05.494Z,98.71
2024-04-10T03:28:35.784Z,98.25
2024-04-10T03:31:04.620Z,99.77
2024-04-10T03:33:37.754Z,99.91
2024-04-10T03:36:05.880Z,100.00
2024-04-10T03:38:36.441Z,100.00
2024-04-10T03:41:03.979Z,100.00
2024-04-10T03:43:33.898Z,100.00
2024-04-10T03:46:05.830Z,100.00
2024-04-10T03:48:38.525Z,100.00
2024-04-10T03:51:08.572Z,100.00
2024-04-10T03:53:35.843Z,100.00
2024-04-10T03:56:05.951Z,100.00
2024-04-10T03:58:33.084Z,100.00
2024-04-10T04:01:03.392Z,99.65
2024-04-10T04:03:30.570Z,97.81
2024-04-10T04:06:03.081Z,98.86
2024-04-10T04:08:30.420Z,100.00
2024-04-10T04:11:00.467Z,99.95
2024-04-10T04:13:27.847Z,100.00
2024-04-10T04:15:57.707Z,99.65
2024-04-10T04:18:27.771Z,99.63
2024-04-10T04:20:57.693Z,100.00
2024-04-10T04:23:28.194Z,100.00
2024-04-10T04:25:57.990Z,100.00
2024-04-10T04:28:25.376Z,100.00
2024-04-10T04:30:55.145Z,100.00
2024-04-10T04:33:22.518Z,100.00
2024-04-10T04:35:52.486Z,100.00
2024-04-10T04:38:19.731Z,100.00
2024-04-10T04:40:54.028Z,100.00
2024-04-10T04:43:21.289Z,100.00
2024-04-10T04:45:51.013Z,100.00
2024-04-10T04:48:18.413Z,100.00
2024-04-10T04:50:49.678Z,100.00
2024-04-10T04:53:17.700Z,100.00
2024-04-10T04:55:48.205Z,100.00
2024-04-10T04:58:18.163Z,100.00
2024-04-10T05:00:47.917Z,100.00
2024-04-10T05:03:35.482Z,100.00
2024-04-10T05:06:08.769Z,100.00
2024-04-10T05:08:38.682Z,100.00
2024-04-10T05:11:10.819Z,100.00
2024-04-10T05:13:40.849Z,100.00
2024-04-10T05:16:12.201Z,100.00
2024-04-10T05:18:39.473Z,100.00
2024-04-10T05:21:09.437Z,100.00
2024-04-10T05:23:36.617Z,100.00
2024-04-10T05:26:07.176Z,100.00
2024-04-10T05:28:34.581Z,100.00
2024-04-10T05:31:10.080Z,100.00
2024-04-10T05:33:37.467Z,100.00
2024-04-10T05:36:08.619Z,100.00
2024-04-10T05:38:35.808Z,100.00
2024-04-10T05:41:06.309Z,100.00
2024-04-10T05:43:33.601Z,100.00
2024-04-10T05:46:03.272Z,100.00
2024-04-10T05:48:33.649Z,100.00
2024-04-10T05:51:03.603Z,100.00
2024-04-10T05:53:33.109Z,100.00
2024-04-10T05:56:06.026Z,100.00
2024-04-10T05:58:33.335Z,100.00
2024-04-10T06:01:09.221Z,100.00
2024-04-10T06:03:42.073Z,100.00
2024-04-10T06:06:10.784Z,100.00
2024-04-10T06:08:40.623Z,100.00
2024-04-10T06:11:08.127Z,100.00
2024-04-10T06:13:38.077Z,100.00
2024-04-10T06:16:06.823Z,100.00
2024-04-10T06:18:36.973Z,100.00
2024-04-10T06:21:07.031Z,100.00
2024-04-10T06:23:37.250Z,100.00
2024-04-10T06:26:04.367Z,100.00
2024-04-10T06:28:35.062Z,100.00
2024-04-10T06:31:03.679Z,100.00
2024-04-10T06:33:34.884Z,99.40
2024-04-10T06:36:05.206Z,99.92
2024-04-10T06:38:39.923Z,100.00
2024-04-10T06:41:07.404Z,100.00
2024-04-10T06:43:37.264Z,100.00
2024-04-10T06:46:06.639Z,100.00
2024-04-10T06:48:36.727Z,100.00
2024-04-10T06:51:04.794Z,100.00
2024-04-10T06:53:37.801Z,100.00
2024-04-10T06:56:08.126Z,100.00
2024-04-10T06:58:38.136Z,99.64
2024-04-10T07:01:06.209Z,100.00
2024-04-10T07:03:37.785Z,100.00
2024-04-10T07:06:06.693Z,100.00
2024-04-10T07:08:44.304Z,100.00
2024-04-10T07:11:20.127Z,100.00
2024-04-10T07:13:49.680Z,100.00
2024-04-10T07:16:19.809Z,100.00
2024-04-10T07:18:47.590Z,100.00
2024-04-10T07:21:18.965Z,100.00
2024-04-10T07:23:50.002Z,100.00
2024-04-10T07:26:21.795Z,100.00
2024-04-10T07:28:51.956Z,100.00
2024-04-10T07:31:23.932Z,100.00
2024-04-10T07:33:53.179Z,100.00
2024-04-10T07:36:23.478Z,100.00
2024-04-10T07:38:55.029Z,100.00
2024-04-10T07:41:26.393Z,100.00
2024-04-10T07:43:54.215Z,100.00
2024-04-10T07:46:25.341Z,100.00
2024-04-10T07:48:56.315Z,100.00
2024-04-10T07:51:29.081Z,100.00
2024-04-10T07:53:58.950Z,100.00
2024-04-10T07:56:30.832Z,100.00
2024-04-10T07:58:58.243Z,100.00
2024-04-10T08:01:28.688Z,100.00
2024-04-10T08:03:56.610Z,100.00
2024-04-10T08:06:26.545Z,100.00
2024-04-10T08:08:53.696Z,100.00
2024-04-10T08:11:28.640Z,100.00
2024-04-10T08:13:55.934Z,100.00
2024-04-10T08:16:26.059Z,100.00
2024-04-10T08:18:53.191Z,100.00
2024-04-10T08:21:23.014Z,100.00
2024-04-10T08:23:50.926Z,100.00
2024-04-10T08:26:22.275Z,100.00
2024-04-10T08:28:54.789Z,100.00
2024-04-10T08:31:29.184Z,100.00
2024-04-10T08:33:56.981Z,100.00
2024-04-10T08:36:29.319Z,97.51
2024-04-10T08:38:56.583Z,97.63
2024-04-10T08:41:26.952Z,93.31
2024-04-10T08:43:57.961Z,92.35
2024-04-10T08:46:30.180Z,93.58
2024-04-10T08:49:00.865Z,90.26
2024-04-10T08:51:30.981Z,91.36
2024-04-10T08:54:00.253Z,91.43
2024-04-10T08:56:30.165Z,89.76
2024-04-10T08:58:59.857Z,88.89
2024-04-10T09:01:32.757Z,87.75
2024-04-10T09:04:05.441Z,85.06
2024-04-10T09:06:35.395Z,88.80
2024-04-10T09:09:05.045Z,89.29
2024-04-10T09:11:34.785Z,87.47
2024-04-10T09:14:06.285Z,89.15
2024-04-10T09:16:36.855Z,87.23
2024-04-10T09:19:11.835Z,88.73
2024-04-10T09:21:42.046Z,89.33
2024-04-10T09:24:10.597Z,87.88
2024-04-10T09:26:43.371Z,88.52
2024-04-10T09:29:14.805Z,87.46
2024-04-10T09:31:48.404Z,88.27
2024-04-10T09:34:21.126Z,89.35
2024-04-10T09:36:52.208Z,89.42
2024-04-10T09:39:24.607Z,89.46
2024-04-10T09:42:02.642Z,90.99
2024-04-10T09:44:34.557Z,87.98
2024-04-10T09:47:06.115Z,85.98
2024-04-10T09:49:40.366Z,85.03
2024-04-10T09:52:13.240Z,84.40
2024-04-10T09:54:42.117Z,82.76
2024-04-10T09:57:14.382Z,84.55
2024-04-10T09:59:47.516Z,83.03
2024-04-10T10:02:21.206Z,80.49
2024-04-10T10:04:49.118Z,81.95
2024-04-10T10:07:24.316Z,81.14
2024-04-10T10:09:51.728Z,81.54
2024-04-10T10:12:28.835Z,84.78
2024-04-10T10:15:13.040Z,84.64
2024-04-10T10:18:00.638Z,83.98
2024-04-10T10:20:34.834Z,85.97
2024-04-10T10:23:03.037Z,82.46
2024-04-10T10:25:33.551Z,82.67
2024-04-10T10:28:05.146Z,83.82
2024-04-10T10:30:38.441Z,88.46
2024-04-10T10:33:07.520Z,81.33
2024-04-10T10:35:37.741Z,79.54
2024-04-10T10:38:07.561Z,79.20
2024-04-10T10:40:38.267Z,75.32
2024-04-10T10:43:06.818Z,76.92
2024-04-10T10:45:40.202Z,78.74
2024-04-10T10:48:08.660Z,83.83
2024-04-10T10:50:38.726Z,76.77
2024-04-10T10:53:12.099Z,82.11
2024-04-10T10:55:52.665Z,77.85
2024-04-10T10:58:19.709Z,73.05
2024-04-10T11:00:52.414Z,72.70
2024-04-10T11:03:27.878Z,72.14
2024-04-10T11:06:10.534Z,72.65
2024-04-10T11:08:38.534Z,75.41
2024-04-10T11:11:12.073Z,74.26
2024-04-10T11:13:48.417Z,71.54
2024-04-10T11:16:31.536Z,71.92
2024-04-10T11:18:58.983Z,73.63
2024-04-10T11:21:28.849Z,75.57
2024-04-10T11:23:56.308Z,82.74
2024-04-10T11:26:26.263Z,80.82
2024-04-10T11:28:54.406Z,73.91
2024-04-10T11:31:24.818Z,74.47
2024-04-10T11:33:54.953Z,70.13
2024-04-10T11:36:24.830Z,66.91
2024-04-10T11:38:52.566Z,59.63
2024-04-10T11:41:22.616Z,61.61
2024-04-10T11:43:50.192Z,64.40
2024-04-10T11:46:20.277Z,65.29
2024-04-10T11:48:47.732Z,62.88
2024-04-10T11:51:20.413Z,68.46
2024-04-10T11:53:47.540Z,64.97
2024-04-10T11:56:17.409Z,66.60
2024-04-10T11:58:44.590Z,69.11
2024-04-10T12:01:15.061Z,67.55
2024-04-10T12:03:42.299Z,66.70
2024-04-10T12:06:12.891Z,71.58
2024-04-10T12:08:42.718Z,65.02
2024-04-10T12:11:12.775Z,63.70
2024-04-10T12:13:42.138Z,66.53
2024-04-10T12:16:11.951Z,62.13
2024-04-10T12:18:39.230Z,59.18
2024-04-10T12:21:10.006Z,59.87
2024-04-10T12:23:37.551Z,59.61
2024-04-10T12:26:10.233Z,62.16
2024-04-10T12:28:37.578Z,68.27
2024-04-10T12:31:07.865Z,70.67
2024-04-10T12:33:36.977Z,67.37
2024-04-10T12:36:23.040Z,69.69
2024-04-10T12:38:53.134Z,66.98
2024-04-10T12:41:25.397Z,66.26
2024-04-10T12:43:56.438Z,68.55
2024-04-10T12:46:29.106Z,69.52
2024-04-10T12:48:59.161Z,68.93
2024-04-10T12:51:26.509Z,64.54
2024-04-10T12:53:56.544Z,65.55
2024-04-10T12:56:26.436Z,66.31
2024-04-10T12:58:56.304Z,65.25
2024-04-10T13:01:25.539Z,63.65
2024-04-10T13:03:55.860Z,68.87
2024-04-10T13:06:25.736Z,72.29
2024-04-10T13:08:55.770Z,69.64
2024-04-10T13:11:26.072Z,76.38
2024-04-10T13:13:55.989Z,71.03
2024-04-10T13:16:23.450Z,74.68
2024-04-10T13:18:53.839Z,71.42
2024-04-10T13:21:21.075Z,74.98
2024-04-10T13:23:52.619Z,74.60
2024-04-10T13:26:20.447Z,67.54
2024-04-10T13:28:53.423Z,66.69
2024-04-10T13:31:23.449Z,66.91
2024-04-10T13:33:56.923Z,68.83
2024-04-10T13:36:24.397Z,72.27
2024-04-10T13:38:55.430Z,70.25
2024-04-10T13:41:24.476Z,69.70
2024-04-10T13:43:58.497Z,70.09
2024-04-10T13:46:26.044Z,70.45
2024-04-10T13:48:56.292Z,72.92
2024-04-10T13:51:25.551Z,74.49
2024-04-10T13:53:56.448Z,74.45
2024-04-10T13:56:24.296Z,71.28
2024-04-10T13:58:56.760Z,65.10
2024-04-10T14:01:24.196Z,62.33
2024-04-10T14:03:57.040Z,64.73
2024-04-10T14:06:26.350Z,64.38
2024-04-10T14:08:58.131Z,64.90
2024-04-10T14:11:26.253Z,65.64
2024-04-10T14:13:58.738Z,68.25
2024-04-10T14:16:26.504Z,65.96
2024-04-10T14:18:57.059Z,62.64
2024-04-10T14:21:27.228Z,64.60
2024-04-10T14:24:01.049Z,65.58
2024-04-10T14:26:29.062Z,66.19
2024-04-10T14:29:01.446Z,66.09
2024-04-10T14:31:28.610Z,65.67
2024-04-10T14:33:58.449Z,59.50
2024-04-10T14:36:25.729Z,58.17
2024-04-10T14:38:55.552Z,59.09
2024-04-10T14:41:22.778Z,60.67
2024-04-10T14:43:53.013Z,60.09
2024-04-10T14:46:22.742Z,60.16
2024-04-10T14:48:52.642Z,61.52
2024-04-10T14:51:19.840Z,61.22
2024-04-10T14:53:49.917Z,62.98
2024-04-10T14:56:17.720Z,65.01
2024-04-10T14:58:47.571Z,61.13
2024-04-10T15:01:16.018Z,62.51
2024-04-10T15:03:49.914Z,62.02
2024-04-10T15:06:17.960Z,63.03
2024-04-10T15:08:49.228Z,63.41
2024-04-10T15:11:28.115Z,64.23
2024-04-10T15:13:59.279Z,63.65
2024-04-10T15:16:26.704Z,64.38
2024-04-10T15:19:02.244Z,63.65
2024-04-10T15:21:31.095Z,65.44
2024-04-10T15:24:01.867Z,64.41
2024-04-10T15:26:29.620Z,63.94
2024-04-10T15:28:59.437Z,63.37
2024-04-10T15:31:26.865Z,64.04
2024-04-10T15:33:59.475Z,64.59
2024-04-10T15:36:26.918Z,64.15
2024-04-10T15:39:00.084Z,64.23
2024-04-10T15:41:27.989Z,63.94
2024-04-10T15:43:58.309Z,64.00
2024-04-10T15:46:25.280Z,63.74
2024-04-10T15:48:59.126Z,64.23
2024-04-10T15:51:30.472Z,63.01
2024-04-10T15:54:01.194Z,64.45
2024-04-10T15:56:28.586Z,59.59
2024-04-10T15:58:58.713Z,59.26
2024-04-10T16:01:26.022Z,64.06
2024-04-10T16:03:56.393Z,61.06
2024-04-10T16:06:24.952Z,60.03
2024-04-10T16:09:00.866Z,59.97
2024-04-10T16:11:29.544Z,60.97
2024-04-10T16:13:59.386Z,63.58
2024-04-10T16:16:26.614Z,65.44
2024-04-10T16:18:56.548Z,67.45
2024-04-10T16:21:24.780Z,68.13
2024-04-10T16:23:57.883Z,67.34
2024-04-10T16:26:27.964Z,66.59
2024-04-10T16:28:57.904Z,63.50
2024-04-10T16:31:25.042Z,66.06
2024-04-10T16:33:55.726Z,62.73
2024-04-10T16:36:23.161Z,59.74
2024-04-10T16:38:54.302Z,59.66
2024-04-10T16:41:24.293Z,60.80
2024-04-10T16:43:54.513Z,63.90
2024-04-10T16:46:21.663Z,65.57
2024-04-10T16:48:51.672Z,64.41
2024-04-10T16:51:18.979Z,64.12
2024-04-10T16:53:49.273Z,65.64
2024-04-10T16:56:16.986Z,62.62
2024-04-10T16:58:49.529Z,62.97
2024-04-10T17:01:17.179Z,64.07
2024-04-10T17:03:47.460Z,62.45
2024-04-10T17:06:14.988Z,63.62
2024-04-10T17:08:45.166Z,63.54
2024-04-10T17:11:15.747Z,64.00
2024-04-10T17:13:45.789Z,64.69
2024-04-10T17:16:15.876Z,63.10
2024-04-10T17:19:01.751Z,62.85
2024-04-10T17:21:48.778Z,63.46
2024-04-10T17:24:20.398Z,67.02
2024-04-10T17:26:50.933Z,68.20
2024-04-10T17:29:23.844Z,68.76
2024-04-10T17:31:56.637Z,69.03
2024-04-10T17:34:27.162Z,68.51
2024-04-10T17:36:55.727Z,69.12
2024-04-10T17:39:28.771Z,70.87
2024-04-10T17:41:56.089Z,73.81
2024-04-10T17:44:26.201Z,74.12
2024-04-10T17:46:56.186Z,75.45
2024-04-10T17:49:28.633Z,75.02
2024-04-10T17:51:56.147Z,74.68
2024-04-10T17:54:26.075Z,75.44
2024-04-10T17:56:53.340Z,76.39
2024-04-10T17:59:23.675Z,75.18
2024-04-10T18:01:51.550Z,76.79
2024-04-10T18:04:24.130Z,76.65
2024-04-10T18:06:51.353Z,78.06
2024-04-10T18:09:21.189Z,78.18
2024-04-10T18:11:48.705Z,77.67
2024-04-10T18:14:19.961Z,77.91
2024-04-10T18:16:47.171Z,79.49
2024-04-10T18:19:17.464Z,79.49
2024-04-10T18:21:48.498Z,80.64
2024-04-10T18:24:18.239Z,80.72
2024-04-10T18:26:45.509Z,80.97
2024-04-10T18:29:15.320Z,80.87
2024-04-10T18:31:42.428Z,81.28
2024-04-10T18:34:12.515Z,83.64
2024-04-10T18:36:40.208Z,86.46
2024-04-10T18:39:13.077Z,87.14
2024-04-10T18:41:41.144Z,89.29
2024-04-10T18:44:19.246Z,90.44
2024-04-10T18:46:46.651Z,89.51
2024-04-10T18:49:16.750Z,91.54
2024-04-10T18:51:44.099Z,92.42
2024-04-10T18:54:16.618Z,92.47
2024-04-10T18:56:46.715Z,91.66
2024-04-10T18:59:17.135Z,93.51
2024-04-10T19:01:44.554Z,94.49
2024-04-10T19:04:14.525Z,95.17
2024-04-10T19:06:50.883Z,96.08
2024-04-10T19:09:24.598Z,96.76
2024-04-10T19:11:53.375Z,97.26
2024-04-10T19:14:24.043Z,97.91
2024-04-10T19:16:52.403Z,99.01
2024-04-10T19:19:22.187Z,97.53
2024-04-10T19:21:50.481Z,96.64
2024-04-10T19:24:24.719Z,97.82
2024-04-10T19:26:53.682Z,98.13
2024-04-10T19:29:27.849Z,98.65
2024-04-10T19:32:04.873Z,99.32
2024-04-10T19:34:36.368Z,99.57
2024-04-10T19:37:04.972Z,99.35
2024-04-10T19:39:38.193Z,99.56
2024-04-10T19:42:06.111Z,100.00
2024-04-10T19:44:36.350Z,100.00
2024-04-10T19:47:04.416Z,100.00
2024-04-10T19:49:35.973Z,100.00
2024-04-10T19:52:03.297Z,100.00
2024-04-10T19:54:34.577Z,100.00
2024-04-10T19:57:05.169Z,100.00
2024-04-10T19:59:35.837Z,100.00
2024-04-10T20:02:04.796Z,100.00
2024-04-10T20:04:36.135Z,100.00
2024-04-10T20:07:08.083Z,100.00
2024-04-10T20:09:44.791Z,100.00
2024-04-10T20:12:14.759Z,100.00
2024-04-10T20:14:44.780Z,100.00
2024-04-10T20:17:14.936Z,100.00
2024-04-10T20:19:45.308Z,100.00
2024-04-10T20:22:12.628Z,100.00
2024-04-10T20:24:42.774Z,100.00
2024-04-10T20:27:10.117Z,100.00
2024-04-10T20:29:44.010Z,100.00
2024-04-10T20:32:11.424Z,100.00
2024-04-10T20:34:41.908Z,100.00
2024-04-10T20:37:09.242Z,100.00
2024-04-10T20:39:39.999Z,100.00
2024-04-10T20:42:08.127Z,100.00
2024-04-10T20:44:37.905Z,100.00
2024-04-10T20:47:08.186Z,100.00
2024-04-10T20:49:38.270Z,100.00
2024-04-10T20:52:05.729Z,100.00
2024-04-10T20:54:35.536Z,100.00
2024-04-10T20:57:02.990Z,100.00
2024-04-10T20:59:33.010Z,100.00
2024-04-10T21:02:02.460Z,100.00
2024-04-10T21:04:35.056Z,100.00
2024-04-10T21:08:57.388Z,100.00
2024-04-10T21:11:43.729Z,100.00
2024-04-10T21:14:30.640Z,100.00
2024-04-10T21:17:17.419Z,100.00
2024-04-10T21:20:03.227Z,100.00
2024-04-10T21:22:48.738Z,100.00
2024-04-10T21:25:48.765Z,100.00
2024-04-10T21:28:34.772Z,100.00
2024-04-10T21:31:21.619Z,100.00
2024-04-10T21:34:07.075Z,100.00
2024-04-10T21:36:52.613Z,100.00
2024-04-10T21:39:38.182Z,100.00
2024-04-10T21:42:34.612Z,100.00
2024-04-10T21:45:20.638Z,100.00
2024-04-10T21:48:07.969Z,100.00
2024-04-10T21:50:54.319Z,100.00
2024-04-10T21:53:39.910Z,100.00
2024-04-10T21:56:26.560Z,100.00
2024-04-10T21:59:15.830Z,100.00
2024-04-10T22:02:06.526Z,100.00
2024-04-10T22:04:57.768Z,100.00
2024-04-10T22:07:45.579Z,100.00
2024-04-10T22:10:15.343Z,100.00
2024-04-10T22:12:45.581Z,100.00
2024-04-10T22:15:16.280Z,100.00
2024-04-10T22:18:05.313Z,100.00
2024-04-10T22:20:53.768Z,100.00
2024-04-10T22:23:40.158Z,100.00
2024-04-10T22:26:12.357Z,100.00
2024-04-10T22:28:47.043Z,100.00
2024-04-10T22:31:19.569Z,100.00
2024-04-10T22:33:46.997Z,100.00
2024-04-10T22:36:16.993Z,100.00
2024-04-10T22:38:45.611Z,100.00
2024-04-10T22:41:18.243Z,100.00
2024-04-10T22:43:50.809Z,100.00
2024-04-10T22:46:27.282Z,100.00
2024-04-10T22:51:30.141Z,100.00
2024-04-10T22:53:59.912Z,100.00
2024-04-10T22:56:31.343Z,100.00
2024-04-10T22:59:03.492Z,100.00
2024-04-10T23:01:37.678Z,100.00
2024-04-10T23:04:09.999Z,100.00
2024-04-10T23:07:20.006Z,100.00
2024-04-10T23:09:27.149Z,100.00
2024-04-10T23:11:55.390Z,100.00
2024-04-10T23:14:25.286Z,100.00
2024-04-10T23:16:55.753Z,100.00
2024-04-10T23:19:28.815Z,100.00
2024-04-10T23:21:59.256Z,100.00
2024-04-10T23:24:29.035Z,100.00
2024-04-10T23:26:56.167Z,100.00
2024-04-10T23:29:26.031Z,100.00
2024-04-10T23:31:55.744Z,100.00
2024-04-10T23:34:26.049Z,100.00
2024-04-10T23:36:53.207Z,100.00
2024-04-10T23:39:23.115Z,100.00
2024-04-10T23:41:50.556Z,100.00
2024-04-10T23:44:20.427Z,100.00
2024-04-10T23:46:47.545Z,100.00
2024-04-10T23:49:20.111Z,100.00
2024-04-10T23:51:47.283Z,100.00
2024-04-10T23:54:16.997Z,100.00
2024-04-10T23:56:44.654Z,100.00
2024-04-10T23:59:15.769Z,100.00
